createdAt,value
2022-11-29T00:01:16.052Z,36.05
2022-11-29T00:04:19.179Z,36.97
2022-11-29T00:07:23.022Z,37.83
2022-11-29T00:10:30.129Z,34.83
2022-11-29T00:16:37.150Z,37.17
2022-11-29T00:19:39.896Z,35.55
2022-11-29T00:22:42.854Z,36.77
2022-11-29T00:25:45.163Z,37.60
2022-11-29T00:28:48.557Z,41.35
2022-11-29T00:31:51.448Z,39.22
2022-11-29T00:34:59.396Z,39.55
2022-11-29T00:38:03.722Z,39.42
2022-11-29T00:41:06.818Z,39.38
2022-11-29T00:44:13.981Z,37.47
2022-11-29T00:47:19.681Z,36.53
2022-11-29T00:50:22.647Z,38.85
2022-11-29T00:53:25.769Z,36.80
2022-11-29T00:56:28.681Z,37.08
2022-11-29T00:59:30.941Z,35.85
2022-11-29T01:02:33.875Z,37.85
2022-11-29T01:05:36.506Z,34.17
2022-11-29T01:08:39.604Z,34.28
2022-11-29T01:11:42.391Z,34.33
2022-11-29T01:14:45.309Z,33.00
2022-11-29T01:17:49.939Z,27.52
2022-11-29T01:21:01.606Z,31.92
2022-11-29T01:24:04.188Z,34.50
2022-11-29T01:27:06.399Z,34.58
2022-11-29T01:30:11.037Z,35.17
2022-11-29T01:36:47.240Z,33.97
2022-11-29T01:39:51.818Z,35.28
2022-11-29T01:42:55.186Z,35.97
2022-11-29T01:45:57.903Z,39.58
2022-11-29T01:49:12.503Z,40.15
2022-11-29T01:52:22.180Z,39.45
2022-11-29T01:55:26.544Z,40.65
2022-11-29T01:58:30.396Z,39.78
2022-11-29T02:01:34.732Z,41.25
2022-11-29T02:04:38.888Z,38.65
2022-11-29T02:07:44.537Z,39.42
2022-11-29T02:11:17.469Z,39.67
2022-11-29T02:14:30.425Z,44.22
2022-11-29T02:17:58.884Z,38.92
2022-11-29T02:21:41.000Z,41.17
2022-11-29T02:25:04.055Z,46.85
2022-11-29T02:28:41.118Z,45.37
2022-11-29T02:32:12.072Z,44.92
2022-11-29T02:35:25.531Z,44.72
2022-11-29T02:38:51.718Z,43.53
2022-11-29T02:42:55.821Z,44.08
2022-11-29T02:46:08.556Z,30.15
2022-11-29T02:49:51.461Z,43.42
2022-11-29T02:53:03.571Z,41.00
2022-11-29T02:56:08.843Z,44.78
2022-11-29T02:59:18.836Z,42.53
2022-11-29T03:02:37.525Z,42.28
2022-11-29T03:06:01.275Z,45.97
2022-11-29T03:09:20.769Z,44.88
2022-11-29T03:12:52.456Z,41.17
2022-11-29T03:16:24.875Z,40.78
2022-11-29T03:19:48.805Z,43.38
2022-11-29T03:23:06.275Z,40.08
2022-11-29T03:26:12.349Z,36.88
2022-11-29T03:29:36.766Z,39.20
2022-11-29T03:36:12.711Z,40.08
2022-11-29T03:39:42.333Z,37.63
2022-11-29T03:42:51.996Z,39.75
2022-11-29T03:45:59.997Z,35.20
2022-11-29T03:49:08.509Z,35.22
2022-11-29T03:52:21.441Z,34.35
2022-11-29T03:55:48.824Z,38.10
2022-11-29T03:59:16.284Z,34.30
2022-11-29T04:02:30.999Z,39.80
2022-11-29T04:05:59.684Z,34.03
2022-11-29T04:09:36.355Z,35.58
2022-11-29T04:12:58.060Z,37.75
2022-11-29T04:16:15.859Z,34.75
2022-11-29T04:19:33.226Z,32.90
2022-11-29T04:22:54.418Z,36.92
2022-11-29T04:26:17.909Z,36.00
2022-11-29T04:29:39.047Z,36.40
2022-11-29T04:33:10.516Z,37.40
2022-11-29T04:36:29.090Z,33.65
2022-11-29T04:39:46.269Z,34.45
2022-11-29T04:43:15.173Z,34.38
2022-11-29T04:46:35.873Z,34.00
2022-11-29T04:49:38.765Z,35.17
2022-11-29T04:52:55.310Z,32.83
2022-11-29T04:56:06.615Z,34.67
2022-11-29T04:59:37.338Z,35.70
2022-11-29T05:03:00.149Z,39.17
2022-11-29T05:06:05.325Z,36.08
2022-11-29T05:09:33.815Z,37.03
2022-11-29T05:12:49.325Z,33.45
2022-11-29T05:16:01.065Z,35.63
2022-11-29T05:19:54.799Z,33.55
2022-11-29T05:23:19.466Z,35.55
2022-11-29T05:26:32.574Z,34.50
2022-11-29T05:29:42.055Z,36.58
2022-11-29T05:33:08.574Z,35.17
2022-11-29T05:36:55.693Z,33.95
2022-11-29T05:40:23.108Z,34.25
2022-11-29T05:43:30.882Z,33.85
2022-11-29T05:46:46.924Z,37.05
2022-11-29T05:49:52.692Z,35.20
2022-11-29T05:53:03.501Z,36.30
2022-11-29T05:56:41.453Z,36.63
2022-11-29T05:59:46.420Z,35.88
2022-11-29T06:03:14.454Z,33.97
2022-11-29T06:06:44.887Z,36.35
2022-11-29T06:10:01.492Z,33.53
2022-11-29T06:13:31.136Z,37.47
2022-11-29T06:17:02.171Z,41.72
2022-11-29T06:20:25.518Z,37.58
2022-11-29T06:24:06.194Z,27.48
2022-11-29T06:27:32.240Z,42.67
2022-11-29T06:31:11.545Z,36.92
2022-11-29T06:34:46.132Z,38.20
2022-11-29T06:37:54.030Z,43.85
2022-11-29T06:41:02.041Z,42.10
2022-11-29T06:44:06.175Z,42.13
2022-11-29T06:47:52.654Z,41.17
2022-11-29T06:51:06.385Z,45.53
2022-11-29T06:54:40.781Z,37.58
2022-11-29T06:58:06.902Z,43.65
2022-11-29T07:01:28.880Z,44.85
2022-11-29T07:04:53.481Z,63.85
2022-11-29T07:07:58.660Z,41.90
2022-11-29T07:11:04.889Z,42.40
2022-11-29T07:14:10.131Z,44.65
2022-11-29T07:17:21.699Z,38.78
2022-11-29T07:20:32.381Z,41.17
2022-11-29T07:23:39.346Z,40.65
2022-11-29T07:27:22.570Z,43.00
2022-11-29T07:30:43.140Z,42.40
2022-11-29T07:34:22.916Z,41.38
2022-11-29T07:37:40.875Z,38.63
2022-11-29T07:41:01.979Z,40.05
2022-11-29T07:44:23.897Z,45.25
2022-11-29T07:47:29.079Z,51.20
2022-11-29T07:50:36.847Z,44.97
2022-11-29T07:53:43.373Z,43.10
2022-11-29T07:56:46.387Z,44.90
2022-11-29T07:59:48.983Z,42.00
2022-11-29T08:02:52.273Z,42.03
2022-11-29T08:05:55.184Z,49.13
2022-11-29T08:09:01.451Z,43.75
2022-11-29T08:12:04.644Z,43.08
2022-11-29T08:15:08.900Z,43.47
2022-11-29T08:21:18.200Z,43.08
2022-11-29T08:24:20.749Z,45.63
2022-11-29T08:27:23.463Z,43.88
2022-11-29T08:30:26.612Z,41.08
2022-11-29T08:33:30.584Z,39.47
2022-11-29T08:36:34.001Z,41.35
2022-11-29T08:39:36.501Z,42.17
2022-11-29T08:42:39.236Z,42.15
2022-11-29T08:45:41.706Z,43.17
2022-11-29T08:48:44.582Z,44.15
2022-11-29T08:51:47.597Z,45.67
2022-11-29T08:54:50.165Z,45.42
2022-11-29T08:57:54.599Z,43.53
2022-11-29T09:00:57.384Z,39.80
2022-11-29T09:04:00.083Z,40.70
2022-11-29T09:07:02.757Z,41.40
2022-11-29T09:10:08.706Z,43.65
2022-11-29T09:13:12.838Z,43.97
2022-11-29T09:16:20.566Z,44.17
2022-11-29T09:19:23.437Z,41.05
2022-11-29T09:22:26.027Z,45.22
2022-11-29T09:25:29.452Z,42.78
2022-11-29T09:28:33.569Z,43.38
2022-11-29T09:31:37.734Z,44.90
2022-11-29T09:34:42.449Z,47.47
2022-11-29T09:37:45.504Z,43.58
2022-11-29T09:40:59.675Z,44.43
2022-11-29T09:44:06.491Z,45.70
2022-11-29T09:47:46.400Z,43.38
2022-11-29T09:50:55.383Z,48.53
2022-11-29T09:54:19.673Z,42.35
2022-11-29T09:57:24.292Z,48.65
2022-11-29T10:00:26.855Z,47.00
2022-11-29T10:03:37.795Z,49.40
2022-11-29T10:06:48.996Z,43.70
2022-11-29T10:09:57.567Z,43.95
2022-11-29T10:13:18.479Z,61.70
2022-11-29T10:16:41.319Z,45.38
2022-11-29T10:19:48.562Z,44.83
2022-11-29T10:23:10.640Z,44.15
2022-11-29T10:26:14.831Z,46.85
2022-11-29T10:29:20.015Z,41.42
2022-11-29T10:32:24.572Z,43.25
2022-11-29T10:35:29.647Z,42.53
2022-11-29T10:38:33.503Z,40.80
2022-11-29T10:44:38.938Z,38.65
2022-11-29T10:47:41.779Z,39.33
2022-11-29T10:50:46.349Z,36.53
2022-11-29T10:53:49.867Z,38.33
2022-11-29T10:56:52.836Z,40.42
2022-11-29T11:00:01.269Z,36.08
2022-11-29T11:03:41.976Z,44.08
2022-11-29T11:06:51.702Z,43.70
2022-11-29T11:09:57.345Z,39.13
2022-11-29T11:13:05.540Z,38.30
2022-11-29T11:16:17.706Z,39.22
2022-11-29T11:19:28.358Z,87.65
2022-11-29T11:22:33.236Z,37.83
2022-11-29T11:25:41.022Z,38.15
2022-11-29T11:28:58.079Z,37.83
2022-11-29T11:32:01.131Z,38.95
2022-11-29T11:35:03.877Z,28.70
2022-11-29T11:38:06.635Z,37.85
2022-11-29T11:41:51.127Z,37.63
2022-11-29T11:44:54.081Z,41.17
2022-11-29T11:48:04.425Z,44.13
2022-11-29T11:51:22.139Z,39.75
2022-11-29T11:54:24.836Z,40.42
2022-11-29T11:57:28.591Z,45.80
2022-11-29T12:01:09.134Z,39.65
2022-11-29T12:04:16.518Z,36.40
2022-11-29T12:08:06.265Z,36.13
2022-11-29T12:11:07.237Z,36.85
2022-11-29T12:14:19.996Z,37.75
2022-11-29T12:17:35.762Z,36.77
2022-11-29T12:21:00.902Z,41.05
2022-11-29T12:24:17.338Z,40.25
2022-11-29T12:27:22.889Z,46.83
2022-11-29T12:30:26.702Z,48.20
2022-11-29T12:36:57.435Z,45.25
2022-11-29T12:40:22.696Z,41.92
2022-11-29T12:43:24.976Z,59.88
2022-11-29T12:46:29.309Z,53.67
2022-11-29T12:49:43.873Z,49.13
2022-11-29T12:53:01.816Z,48.40
2022-11-29T12:56:07.757Z,41.92
2022-11-29T12:59:29.175Z,43.20
2022-11-29T13:02:49.171Z,40.65
2022-11-29T13:06:09.875Z,39.00
2022-11-29T13:09:24.110Z,36.13
2022-11-29T13:15:47.225Z,40.83
2022-11-29T13:19:15.306Z,28.50
2022-11-29T13:22:40.943Z,36.92
2022-11-29T13:25:46.799Z,44.08
2022-11-29T13:28:50.361Z,46.08
2022-11-29T13:31:54.460Z,35.83
2022-11-29T13:35:02.521Z,36.20
2022-11-29T13:38:20.560Z,40.63
2022-11-29T13:42:07.150Z,47.58
2022-11-29T13:45:21.965Z,36.47
2022-11-29T13:48:28.233Z,42.17
2022-11-29T13:51:37.462Z,64.30
2022-11-29T13:54:39.951Z,43.55
2022-11-29T14:01:19.133Z,40.70
2022-11-29T14:04:33.777Z,43.80
2022-11-29T14:07:36.668Z,45.50
2022-11-29T14:10:40.674Z,38.90
2022-11-29T14:16:52.124Z,107.38
2022-11-29T14:20:23.857Z,126.38
2022-11-29T14:23:43.609Z,120.43
2022-11-29T14:26:46.185Z,65.85
2022-11-29T14:29:53.802Z,63.83
2022-11-29T14:33:04.976Z,43.58
2022-11-29T14:36:19.918Z,64.75
2022-11-29T14:39:32.420Z,45.03
2022-11-29T14:42:36.178Z,46.65
2022-11-29T14:45:38.775Z,105.97
2022-11-29T14:48:56.449Z,81.22
2022-11-29T14:52:14.640Z,89.18
2022-11-29T14:55:17.723Z,66.70
2022-11-29T14:58:21.404Z,42.63
2022-11-29T15:01:24.239Z,40.90
2022-11-29T15:04:28.606Z,46.40
2022-11-29T15:10:39.555Z,43.88
2022-11-29T15:13:55.453Z,41.97
2022-11-29T15:17:35.396Z,43.25
2022-11-29T15:20:46.799Z,46.40
2022-11-29T15:24:01.003Z,48.22
2022-11-29T15:27:04.656Z,49.70
2022-11-29T15:30:42.565Z,52.53
2022-11-29T15:33:50.720Z,46.22
2022-11-29T15:36:59.210Z,47.80
2022-11-29T15:40:15.415Z,45.20
2022-11-29T15:43:22.639Z,46.50
2022-11-29T15:46:31.005Z,46.50
2022-11-29T15:49:34.296Z,37.15
2022-11-29T15:52:37.420Z,40.53
2022-11-29T15:55:41.199Z,28.83
2022-11-29T16:01:48.514Z,38.22
2022-11-29T16:04:54.105Z,35.53
2022-11-29T16:08:02.639Z,39.20
2022-11-29T16:11:06.497Z,36.22
2022-11-29T16:14:11.787Z,34.40
2022-11-29T16:17:14.400Z,38.10
2022-11-29T16:20:17.668Z,37.63
2022-11-29T16:23:20.597Z,29.27
2022-11-29T16:26:29.472Z,31.87
2022-11-29T16:29:37.589Z,41.42
2022-11-29T16:32:44.739Z,34.13
2022-11-29T16:35:47.733Z,35.67
2022-11-29T16:38:57.138Z,34.47
2022-11-29T16:42:25.903Z,33.60
2022-11-29T16:45:42.416Z,32.80
2022-11-29T16:48:45.045Z,35.30
2022-11-29T16:51:48.621Z,37.45
2022-11-29T16:54:51.938Z,33.55
2022-11-29T16:57:57.390Z,26.98
2022-11-29T17:01:01.028Z,38.63
2022-11-29T17:04:05.173Z,34.40
2022-11-29T17:07:12.405Z,37.97
2022-11-29T17:10:21.284Z,38.58
2022-11-29T17:13:24.310Z,34.95
2022-11-29T17:16:27.576Z,38.33
2022-11-29T17:19:31.242Z,32.55
2022-11-29T17:22:34.385Z,33.17
2022-11-29T17:25:36.842Z,30.17
2022-11-29T17:28:41.150Z,35.13
2022-11-29T17:31:47.996Z,32.83
2022-11-29T17:34:50.581Z,34.90
2022-11-29T17:37:53.300Z,37.47
2022-11-29T17:40:55.731Z,32.92
2022-11-29T17:43:59.873Z,32.83
2022-11-29T17:47:08.758Z,34.55
2022-11-29T17:50:11.895Z,32.20
2022-11-29T17:53:14.402Z,37.13
2022-11-29T17:56:22.421Z,36.83
2022-11-29T17:59:24.921Z,32.25
2022-11-29T18:02:27.535Z,39.47
2022-11-29T18:05:34.507Z,31.88
2022-11-29T18:08:43.314Z,37.50
2022-11-29T18:11:49.391Z,33.35
2022-11-29T18:14:54.572Z,37.00
2022-11-29T18:17:57.490Z,36.67
2022-11-29T18:21:00.576Z,44.63
2022-11-29T18:24:09.359Z,35.83
2022-11-29T18:27:11.988Z,35.10
2022-11-29T18:30:14.675Z,33.53
2022-11-29T18:33:17.247Z,34.15
2022-11-29T18:36:25.984Z,35.17
2022-11-29T18:39:30.207Z,34.33
2022-11-29T18:42:32.719Z,35.50
2022-11-29T18:45:38.952Z,34.55
2022-11-29T18:48:42.077Z,38.95
2022-11-29T18:51:45.675Z,30.05
2022-11-29T18:57:51.963Z,37.88
2022-11-29T19:00:55.828Z,37.80
2022-11-29T19:04:01.267Z,36.85
2022-11-29T19:07:03.858Z,38.88
2022-11-29T19:10:07.536Z,36.08
2022-11-29T19:13:10.669Z,34.25
2022-11-29T19:16:17.599Z,37.78
2022-11-29T19:19:20.321Z,37.72
2022-11-29T19:22:22.866Z,43.33
2022-11-29T19:25:25.775Z,33.53
2022-11-29T19:28:29.553Z,29.30
2022-11-29T19:31:32.383Z,34.05
2022-11-29T19:34:35.026Z,34.08
2022-11-29T19:37:37.595Z,33.78
2022-11-29T19:40:40.520Z,32.97
2022-11-29T19:43:43.774Z,26.73
2022-11-29T19:46:48.738Z,34.90
2022-11-29T19:49:51.788Z,34.60
2022-11-29T19:52:54.705Z,29.05
2022-11-29T19:55:57.119Z,35.92
2022-11-29T19:59:00.492Z,34.80
2022-11-29T20:02:03.414Z,32.95
2022-11-29T20:05:06.739Z,34.95
2022-11-29T20:08:10.311Z,34.70
2022-11-29T20:11:19.608Z,32.63
2022-11-29T20:14:22.324Z,32.90
2022-11-29T20:17:24.934Z,34.65
2022-11-29T20:20:27.762Z,34.60
2022-11-29T20:23:30.367Z,35.88
2022-11-29T20:26:34.536Z,33.55
2022-11-29T20:29:37.814Z,34.03
2022-11-29T20:32:40.561Z,35.20
2022-11-29T20:35:43.030Z,38.30
2022-11-29T20:38:52.885Z,32.85
2022-11-29T20:42:14.090Z,39.72
2022-11-29T20:45:17.612Z,41.63
2022-11-29T20:48:22.494Z,39.67
2022-11-29T20:51:38.768Z,39.05
2022-11-29T20:54:41.933Z,40.00
2022-11-29T20:57:44.486Z,38.35
2022-11-29T21:00:47.472Z,37.92
2022-11-29T21:03:50.626Z,29.83
2022-11-29T21:06:53.805Z,37.75
2022-11-29T21:10:01.090Z,27.95
2022-11-29T21:13:05.775Z,38.83
2022-11-29T21:16:08.994Z,38.28
2022-11-29T21:19:19.712Z,29.75
2022-11-29T21:23:03.970Z,38.25
2022-11-29T21:26:17.998Z,33.13
2022-11-29T21:32:26.482Z,38.83
2022-11-29T21:35:29.001Z,39.78
2022-11-29T21:38:35.331Z,41.42
2022-11-29T21:41:39.754Z,35.92
2022-11-29T21:44:42.776Z,37.03
2022-11-29T21:47:45.905Z,30.85
2022-11-29T21:50:50.725Z,38.85
2022-11-29T21:53:53.046Z,35.15
2022-11-29T21:56:57.034Z,37.65
2022-11-29T21:59:59.792Z,36.83
2022-11-29T22:03:02.532Z,37.70
2022-11-29T22:06:08.386Z,36.17
2022-11-29T22:09:10.784Z,36.40
2022-11-29T22:12:33.060Z,35.05
2022-11-29T22:15:38.874Z,34.42
2022-11-29T22:18:42.849Z,35.75
2022-11-29T22:21:47.506Z,36.10
2022-11-29T22:24:50.585Z,39.85
2022-11-29T22:27:53.438Z,29.27
2022-11-29T22:31:22.522Z,36.00
2022-11-29T22:34:27.965Z,33.03
2022-11-29T22:37:30.472Z,34.80
2022-11-29T22:40:33.775Z,36.30
2022-11-29T22:43:38.120Z,36.25
2022-11-29T22:49:44.766Z,33.97
2022-11-29T22:52:47.242Z,35.60
2022-11-29T22:55:49.647Z,36.30
2022-11-29T22:58:52.531Z,39.22
2022-11-29T23:01:55.229Z,37.63
2022-11-29T23:04:57.880Z,36.72
2022-11-29T23:08:00.915Z,36.30
2022-11-29T23:11:04.641Z,26.57
2022-11-29T23:14:07.162Z,33.15
2022-11-29T23:17:09.779Z,34.65
2022-11-29T23:20:12.818Z,36.15
2022-11-29T23:23:16.262Z,39.00
2022-11-29T23:26:21.707Z,37.40
2022-11-29T23:29:24.174Z,39.08
2022-11-29T23:32:26.943Z,36.60
2022-11-29T23:35:30.225Z,36.35
2022-11-29T23:38:33.378Z,36.92
2022-11-29T23:41:37.127Z,27.75
2022-11-29T23:47:42.626Z,36.15
2022-11-29T23:50:45.306Z,35.08
2022-11-29T23:53:55.475Z,36.63
2022-11-29T23:56:58.250Z,34.92
